sensor_id;sensor_type;location;lat;lon;timestamp;P1;durP1;ratioP1;P2;durP2;ratioP2
25153;SDS011;47555;51.038;6.280;2022-11-04T00:01:11;2.17;;;1.77;;
25153;SDS011;47555;51.038;6.280;2022-11-04T00:03:37;2.85;;;1.90;;
25153;SDS011;47555;51.038;6.280;2022-11-04T00:06:03;1.95;;;1.70;;
25153;SDS011;47555;51.038;6.280;2022-11-04T00:08:28;3.50;;;2.20;;
25153;SDS011;47555;51.038;6.280;2022-11-04T00:10:55;4.63;;;2.17;;
25153;SDS011;47555;51.038;6.280;2022-11-04T00:13:43;4.90;;;2.28;;
25153;SDS011;47555;51.038;6.280;2022-11-04T00:16:10;5.25;;;2.80;;
25153;SDS011;47555;51.038;6.280;2022-11-04T00:18:54;6.53;;;2.75;;
25153;SDS011;47555;51.038;6.280;2022-11-04T00:21:20;3.95;;;2.60;;
25153;SDS011;47555;51.038;6.280;2022-11-04T00:24:04;3.78;;;2.80;;
25153;SDS011;47555;51.038;6.280;2022-11-04T00:27:02;3.70;;;2.80;;
25153;SDS011;47555;51.038;6.280;2022-11-04T00:29:47;3.47;;;2.40;;
25153;SDS011;47555;51.038;6.280;2022-11-04T00:32:12;4.25;;;3.05;;
25153;SDS011;47555;51.038;6.280;2022-11-04T00:34:56;4.30;;;2.97;;
25153;SDS011;47555;51.038;6.280;2022-11-04T00:37:22;3.47;;;2.38;;
25153;SDS011;47555;51.038;6.280;2022-11-04T00:39:48;4.35;;;3.05;;
25153;SDS011;47555;51.038;6.280;2022-11-04T00:42:13;4.22;;;2.83;;
25153;SDS011;47555;51.038;6.280;2022-11-04T00:44:39;3.90;;;2.55;;
25153;SDS011;47555;51.038;6.280;2022-11-04T00:47:04;3.10;;;2.33;;
25153;SDS011;47555;51.038;6.280;2022-11-04T00:49:30;5.10;;;2.72;;
25153;SDS011;47555;51.038;6.280;2022-11-04T00:51:55;3.55;;;2.40;;
25153;SDS011;47555;51.038;6.280;2022-11-04T00:54:21;4.43;;;2.10;;
25153;SDS011;47555;51.038;6.280;2022-11-04T00:56:46;5.22;;;2.58;;
25153;SDS011;47555;51.038;6.280;2022-11-04T00:59:15;4.45;;;2.53;;
25153;SDS011;47555;51.038;6.280;2022-11-04T01:01:40;5.18;;;2.58;;
25153;SDS011;47555;51.038;6.280;2022-11-04T01:04:06;3.40;;;2.03;;
25153;SDS011;47555;51.038;6.280;2022-11-04T01:06:31;5.25;;;2.80;;
25153;SDS011;47555;51.038;6.280;2022-11-04T01:08:58;3.72;;;2.58;;
25153;SDS011;47555;51.038;6.280;2022-11-04T01:11:26;3.85;;;2.17;;
25153;SDS011;47555;51.038;6.280;2022-11-04T01:13:53;4.57;;;2.42;;
25153;SDS011;47555;51.038;6.280;2022-11-04T01:16:19;3.42;;;1.90;;
25153;SDS011;47555;51.038;6.280;2022-11-04T01:18:45;5.53;;;2.00;;
25153;SDS011;47555;51.038;6.280;2022-11-04T01:21:12;2.60;;;1.67;;
25153;SDS011;47555;51.038;6.280;2022-11-04T01:23:39;5.68;;;2.00;;
25153;SDS011;47555;51.038;6.280;2022-11-04T01:26:11;5.60;;;1.98;;
25153;SDS011;47555;51.038;6.280;2022-11-04T01:28:42;3.65;;;1.77;;
25153;SDS011;47555;51.038;6.280;2022-11-04T01:31:08;2.65;;;1.90;;
25153;SDS011;47555;51.038;6.280;2022-11-04T01:33:35;2.40;;;1.90;;
25153;SDS011;47555;51.038;6.280;2022-11-04T01:36:02;3.67;;;2.17;;
25153;SDS011;47555;51.038;6.280;2022-11-04T01:38:28;3.80;;;2.08;;
25153;SDS011;47555;51.038;6.280;2022-11-04T01:40:54;3.92;;;2.00;;
25153;SDS011;47555;51.038;6.280;2022-11-04T01:43:20;5.03;;;1.85;;
25153;SDS011;47555;51.038;6.280;2022-11-04T01:45:48;2.53;;;2.28;;
25153;SDS011;47555;51.038;6.280;2022-11-04T01:48:23;4.20;;;1.80;;
25153;SDS011;47555;51.038;6.280;2022-11-04T01:50:52;2.22;;;1.60;;
25153;SDS011;47555;51.038;6.280;2022-11-04T01:53:23;2.97;;;1.70;;
25153;SDS011;47555;51.038;6.280;2022-11-04T01:55:57;3.17;;;1.58;;
25153;SDS011;47555;51.038;6.280;2022-11-04T01:58:27;3.95;;;1.85;;
25153;SDS011;47555;51.038;6.280;2022-11-04T02:00:56;4.35;;;1.60;;
25153;SDS011;47555;51.038;6.280;2022-11-04T02:03:25;6.47;;;1.70;;
25153;SDS011;47555;51.038;6.280;2022-11-04T02:05:58;4.32;;;1.50;;
25153;SDS011;47555;51.038;6.280;2022-11-04T02:08:24;4.88;;;1.55;;
25153;SDS011;47555;51.038;6.280;2022-11-04T02:10:53;3.35;;;1.83;;
25153;SDS011;47555;51.038;6.280;2022-11-04T02:13:22;5.50;;;1.70;;
25153;SDS011;47555;51.038;6.280;2022-11-04T02:24:10;3.70;;;1.60;;
25153;SDS011;47555;51.038;6.280;2022-11-04T02:32:26;5.50;;;2.00;;
25153;SDS011;47555;51.038;6.280;2022-11-04T02:40:52;2.70;;;1.90;;
25153;SDS011;47555;51.038;6.280;2022-11-04T02:43:51;1.92;;;1.50;;
25153;SDS011;47555;51.038;6.280;2022-11-04T02:46:37;2.35;;;1.80;;
25153;SDS011;47555;51.038;6.280;2022-11-04T02:49:13;3.97;;;1.83;;
25153;SDS011;47555;51.038;6.280;2022-11-04T02:51:59;4.72;;;1.75;;
25153;SDS011;47555;51.038;6.280;2022-11-04T02:54:49;6.35;;;1.77;;
25153;SDS011;47555;51.038;6.280;2022-11-04T02:59:49;3.15;;;1.65;;
25153;SDS011;47555;51.038;6.280;2022-11-04T03:02:29;3.40;;;1.60;;
25153;SDS011;47555;51.038;6.280;2022-11-04T03:04:59;3.95;;;1.98;;
25153;SDS011;47555;51.038;6.280;2022-11-04T03:07:30;5.15;;;1.63;;
25153;SDS011;47555;51.038;6.280;2022-11-04T03:10:00;4.95;;;1.70;;
25153;SDS011;47555;51.038;6.280;2022-11-04T03:12:32;5.80;;;1.98;;
25153;SDS011;47555;51.038;6.280;2022-11-04T03:15:04;6.20;;;1.45;;
25153;SDS011;47555;51.038;6.280;2022-11-04T03:17:39;3.10;;;2.30;;
25153;SDS011;47555;51.038;6.280;2022-11-04T03:20:12;6.70;;;1.55;;
25153;SDS011;47555;51.038;6.280;2022-11-04T03:22:44;2.85;;;1.38;;
25153;SDS011;47555;51.038;6.280;2022-11-04T03:25:10;2.92;;;1.30;;
25153;SDS011;47555;51.038;6.280;2022-11-04T03:27:47;4.63;;;1.50;;
25153;SDS011;47555;51.038;6.280;2022-11-04T03:30:14;3.92;;;1.40;;
25153;SDS011;47555;51.038;6.280;2022-11-04T03:35:22;6.93;;;1.67;;
25153;SDS011;47555;51.038;6.280;2022-11-04T03:37:49;2.55;;;1.42;;
25153;SDS011;47555;51.038;6.280;2022-11-04T03:40:15;4.00;;;1.80;;
25153;SDS011;47555;51.038;6.280;2022-11-04T03:42:47;3.40;;;1.60;;
25153;SDS011;47555;51.038;6.280;2022-11-04T03:45:21;3.30;;;1.60;;
25153;SDS011;47555;51.038;6.280;2022-11-04T03:47:47;9.32;;;1.98;;
25153;SDS011;47555;51.038;6.280;2022-11-04T03:52:53;2.90;;;1.40;;
25153;SDS011;47555;51.038;6.280;2022-11-04T03:55:19;1.70;;;1.60;;
25153;SDS011;47555;51.038;6.280;2022-11-04T04:00:11;3.65;;;1.67;;
25153;SDS011;47555;51.038;6.280;2022-11-04T04:02:52;4.13;;;1.58;;
25153;SDS011;47555;51.038;6.280;2022-11-04T04:05:25;3.92;;;1.48;;
25153;SDS011;47555;51.038;6.280;2022-11-04T04:08:12;4.82;;;1.80;;
25153;SDS011;47555;51.038;6.280;2022-11-04T04:10:51;3.60;;;1.38;;
25153;SDS011;47555;51.038;6.280;2022-11-04T04:13:36;3.88;;;1.25;;
25153;SDS011;47555;51.038;6.280;2022-11-04T04:16:14;3.65;;;1.65;;
25153;SDS011;47555;51.038;6.280;2022-11-04T04:18:50;3.78;;;1.50;;
25153;SDS011;47555;51.038;6.280;2022-11-04T04:21:22;6.05;;;1.63;;
25153;SDS011;47555;51.038;6.280;2022-11-04T04:23:53;4.60;;;1.63;;
25153;SDS011;47555;51.038;6.280;2022-11-04T04:26:41;3.08;;;1.52;;
25153;SDS011;47555;51.038;6.280;2022-11-04T04:29:27;6.15;;;2.20;;
25153;SDS011;47555;51.038;6.280;2022-11-04T04:31:55;2.67;;;1.27;;
25153;SDS011;47555;51.038;6.280;2022-11-04T04:34:26;3.55;;;1.73;;
25153;SDS011;47555;51.038;6.280;2022-11-04T04:37:01;11.15;;;1.77;;
25153;SDS011;47555;51.038;6.280;2022-11-04T04:39:32;1.83;;;1.23;;
25153;SDS011;47555;51.038;6.280;2022-11-04T04:42:20;2.53;;;1.10;;
25153;SDS011;47555;51.038;6.280;2022-11-04T04:45:06;1.92;;;1.08;;
25153;SDS011;47555;51.038;6.280;2022-11-04T04:50:09;4.45;;;1.48;;
25153;SDS011;47555;51.038;6.280;2022-11-04T04:52:37;3.53;;;1.50;;
25153;SDS011;47555;51.038;6.280;2022-11-04T04:55:05;4.45;;;1.50;;
25153;SDS011;47555;51.038;6.280;2022-11-04T04:57:32;4.05;;;1.70;;
25153;SDS011;47555;51.038;6.280;2022-11-04T04:59:58;4.88;;;1.27;;
25153;SDS011;47555;51.038;6.280;2022-11-04T05:02:23;1.95;;;1.45;;
25153;SDS011;47555;51.038;6.280;2022-11-04T05:04:52;4.70;;;1.58;;
25153;SDS011;47555;51.038;6.280;2022-11-04T05:07:17;2.30;;;1.27;;
25153;SDS011;47555;51.038;6.280;2022-11-04T05:09:43;3.33;;;1.50;;
25153;SDS011;47555;51.038;6.280;2022-11-04T05:12:08;3.65;;;1.50;;
25153;SDS011;47555;51.038;6.280;2022-11-04T05:14:34;3.45;;;1.35;;
25153;SDS011;47555;51.038;6.280;2022-11-04T05:17:00;5.07;;;1.70;;
25153;SDS011;47555;51.038;6.280;2022-11-04T05:19:25;2.42;;;1.63;;
25153;SDS011;47555;51.038;6.280;2022-11-04T05:21:51;4.13;;;1.80;;
25153;SDS011;47555;51.038;6.280;2022-11-04T05:24:16;11.30;;;1.95;;
25153;SDS011;47555;51.038;6.280;2022-11-04T05:26:42;6.18;;;2.28;;
25153;SDS011;47555;51.038;6.280;2022-11-04T05:29:08;4.55;;;1.77;;
25153;SDS011;47555;51.038;6.280;2022-11-04T05:31:34;6.28;;;1.92;;
25153;SDS011;47555;51.038;6.280;2022-11-04T05:33:59;3.90;;;1.60;;
25153;SDS011;47555;51.038;6.280;2022-11-04T05:36:25;8.05;;;2.08;;
25153;SDS011;47555;51.038;6.280;2022-11-04T05:38:51;3.40;;;1.70;;
25153;SDS011;47555;51.038;6.280;2022-11-04T05:41:19;5.70;;;2.20;;
25153;SDS011;47555;51.038;6.280;2022-11-04T05:43:57;2.65;;;1.75;;
25153;SDS011;47555;51.038;6.280;2022-11-04T05:46:27;4.65;;;1.88;;
25153;SDS011;47555;51.038;6.280;2022-11-04T05:48:53;4.75;;;1.85;;
25153;SDS011;47555;51.038;6.280;2022-11-04T05:51:20;4.10;;;2.00;;
25153;SDS011;47555;51.038;6.280;2022-11-04T05:53:48;4.50;;;1.60;;
25153;SDS011;47555;51.038;6.280;2022-11-04T05:56:14;3.78;;;2.00;;
25153;SDS011;47555;51.038;6.280;2022-11-04T05:58:40;4.22;;;1.95;;
25153;SDS011;47555;51.038;6.280;2022-11-04T06:03:57;3.20;;;1.42;;
25153;SDS011;47555;51.038;6.280;2022-11-04T06:06:25;4.05;;;1.58;;
25153;SDS011;47555;51.038;6.280;2022-11-04T06:08:52;3.70;;;1.85;;
25153;SDS011;47555;51.038;6.280;2022-11-04T06:11:19;6.53;;;2.17;;
25153;SDS011;47555;51.038;6.280;2022-11-04T06:13:45;4.28;;;1.63;;
25153;SDS011;47555;51.038;6.280;2022-11-04T06:16:11;3.47;;;1.73;;
25153;SDS011;47555;51.038;6.280;2022-11-04T06:18:37;5.28;;;2.25;;
25153;SDS011;47555;51.038;6.280;2022-11-04T06:21:22;3.42;;;2.10;;
25153;SDS011;47555;51.038;6.280;2022-11-04T06:23:53;4.30;;;2.13;;
25153;SDS011;47555;51.038;6.280;2022-11-04T06:26:23;2.47;;;1.83;;
25153;SDS011;47555;51.038;6.280;2022-11-04T06:28:50;4.78;;;1.92;;
25153;SDS011;47555;51.038;6.280;2022-11-04T06:31:15;3.53;;;1.98;;
25153;SDS011;47555;51.038;6.280;2022-11-04T06:33:44;8.15;;;2.72;;
25153;SDS011;47555;51.038;6.280;2022-11-04T06:36:11;3.90;;;2.30;;
25153;SDS011;47555;51.038;6.280;2022-11-04T06:38:38;3.78;;;2.05;;
25153;SDS011;47555;51.038;6.280;2022-11-04T06:41:06;4.93;;;2.13;;
25153;SDS011;47555;51.038;6.280;2022-11-04T06:43:34;4.97;;;2.22;;
25153;SDS011;47555;51.038;6.280;2022-11-04T06:46:00;7.05;;;2.60;;
25153;SDS011;47555;51.038;6.280;2022-11-04T06:48:26;6.88;;;2.38;;
25153;SDS011;47555;51.038;6.280;2022-11-04T06:50:54;2.75;;;1.95;;
25153;SDS011;47555;51.038;6.280;2022-11-04T06:53:21;4.07;;;2.08;;
25153;SDS011;47555;51.038;6.280;2022-11-04T06:55:47;2.58;;;2.00;;
25153;SDS011;47555;51.038;6.280;2022-11-04T06:58:12;5.35;;;2.88;;
25153;SDS011;47555;51.038;6.280;2022-11-04T07:00:38;5.22;;;2.90;;
25153;SDS011;47555;51.038;6.280;2022-11-04T07:03:03;7.45;;;3.65;;
25153;SDS011;47555;51.038;6.280;2022-11-04T07:05:31;6.13;;;4.10;;
25153;SDS011;47555;51.038;6.280;2022-11-04T07:07:57;7.22;;;4.68;;
25153;SDS011;47555;51.038;6.280;2022-11-04T07:10:22;6.10;;;4.47;;
25153;SDS011;47555;51.038;6.280;2022-11-04T07:12:48;8.48;;;4.53;;
25153;SDS011;47555;51.038;6.280;2022-11-04T07:15:13;9.05;;;4.20;;
25153;SDS011;47555;51.038;6.280;2022-11-04T07:17:39;5.93;;;2.95;;
25153;SDS011;47555;51.038;6.280;2022-11-04T07:20:05;4.38;;;2.58;;
25153;SDS011;47555;51.038;6.280;2022-11-04T07:22:31;6.03;;;3.55;;
25153;SDS011;47555;51.038;6.280;2022-11-04T07:24:56;5.75;;;2.85;;
25153;SDS011;47555;51.038;6.280;2022-11-04T07:27:22;7.25;;;2.80;;
25153;SDS011;47555;51.038;6.280;2022-11-04T07:29:50;4.28;;;2.90;;
25153;SDS011;47555;51.038;6.280;2022-11-04T07:32:16;7.53;;;3.22;;
25153;SDS011;47555;51.038;6.280;2022-11-04T07:34:41;6.07;;;3.15;;
25153;SDS011;47555;51.038;6.280;2022-11-04T07:37:07;5.43;;;2.97;;
25153;SDS011;47555;51.038;6.280;2022-11-04T07:39:32;5.85;;;2.80;;
25153;SDS011;47555;51.038;6.280;2022-11-04T07:41:58;5.35;;;2.50;;
25153;SDS011;47555;51.038;6.280;2022-11-04T07:44:23;3.85;;;1.70;;
25153;SDS011;47555;51.038;6.280;2022-11-04T07:46:49;4.20;;;2.15;;
25153;SDS011;47555;51.038;6.280;2022-11-04T07:49:14;6.70;;;2.05;;
25153;SDS011;47555;51.038;6.280;2022-11-04T07:51:41;4.30;;;1.83;;
25153;SDS011;47555;51.038;6.280;2022-11-04T07:54:07;6.60;;;2.45;;
25153;SDS011;47555;51.038;6.280;2022-11-04T07:56:33;4.10;;;2.05;;
25153;SDS011;47555;51.038;6.280;2022-11-04T07:58:58;4.28;;;1.83;;
25153;SDS011;47555;51.038;6.280;2022-11-04T08:01:24;6.45;;;2.42;;
25153;SDS011;47555;51.038;6.280;2022-11-04T08:03:49;7.05;;;2.20;;
25153;SDS011;47555;51.038;6.280;2022-11-04T08:06:16;4.50;;;2.13;;
25153;SDS011;47555;51.038;6.280;2022-11-04T08:08:42;6.00;;;2.25;;
25153;SDS011;47555;51.038;6.280;2022-11-04T08:11:10;7.53;;;2.28;;
25153;SDS011;47555;51.038;6.280;2022-11-04T08:13:41;3.47;;;1.77;;
25153;SDS011;47555;51.038;6.280;2022-11-04T08:16:08;3.40;;;1.52;;
25153;SDS011;47555;51.038;6.280;2022-11-04T08:18:37;6.22;;;2.03;;
25153;SDS011;47555;51.038;6.280;2022-11-04T08:21:03;4.57;;;2.08;;
25153;SDS011;47555;51.038;6.280;2022-11-04T08:23:29;7.53;;;2.72;;
25153;SDS011;47555;51.038;6.280;2022-11-04T08:25:56;7.43;;;3.95;;
25153;SDS011;47555;51.038;6.280;2022-11-04T08:28:22;13.25;;;5.13;;
25153;SDS011;47555;51.038;6.280;2022-11-04T08:30:52;13.57;;;4.30;;
25153;SDS011;47555;51.038;6.280;2022-11-04T08:33:19;9.45;;;3.17;;
25153;SDS011;47555;51.038;6.280;2022-11-04T08:35:44;4.80;;;2.92;;
25153;SDS011;47555;51.038;6.280;2022-11-04T08:38:10;4.82;;;2.38;;
25153;SDS011;47555;51.038;6.280;2022-11-04T08:40:35;6.97;;;2.67;;
25153;SDS011;47555;51.038;6.280;2022-11-04T08:43:01;5.43;;;2.70;;
25153;SDS011;47555;51.038;6.280;2022-11-04T08:45:27;5.65;;;2.20;;
25153;SDS011;47555;51.038;6.280;2022-11-04T08:47:52;3.83;;;2.20;;
25153;SDS011;47555;51.038;6.280;2022-11-04T08:50:18;3.33;;;2.75;;
25153;SDS011;47555;51.038;6.280;2022-11-04T08:52:44;13.48;;;2.90;;
25153;SDS011;47555;51.038;6.280;2022-11-04T08:55:10;6.03;;;2.35;;
25153;SDS011;47555;51.038;6.280;2022-11-04T08:57:35;4.70;;;3.10;;
25153;SDS011;47555;51.038;6.280;2022-11-04T09:00:01;5.43;;;2.38;;
25153;SDS011;47555;51.038;6.280;2022-11-04T09:02:27;6.05;;;2.38;;
25153;SDS011;47555;51.038;6.280;2022-11-04T09:04:53;3.70;;;2.42;;
25153;SDS011;47555;51.038;6.280;2022-11-04T09:07:18;5.72;;;2.63;;
25153;SDS011;47555;51.038;6.280;2022-11-04T09:09:44;5.22;;;2.22;;
25153;SDS011;47555;51.038;6.280;2022-11-04T09:12:09;5.82;;;2.28;;
25153;SDS011;47555;51.038;6.280;2022-11-04T09:14:37;6.30;;;2.20;;
25153;SDS011;47555;51.038;6.280;2022-11-04T09:17:03;5.85;;;2.20;;
25153;SDS011;47555;51.038;6.280;2022-11-04T09:19:28;5.28;;;1.83;;
25153;SDS011;47555;51.038;6.280;2022-11-04T09:21:54;4.05;;;2.13;;
25153;SDS011;47555;51.038;6.280;2022-11-04T09:24:19;4.88;;;2.30;;
25153;SDS011;47555;51.038;6.280;2022-11-04T09:26:45;6.18;;;2.30;;
25153;SDS011;47555;51.038;6.280;2022-11-04T09:29:11;8.70;;;2.50;;
25153;SDS011;47555;51.038;6.280;2022-11-04T09:31:36;3.63;;;2.20;;
25153;SDS011;47555;51.038;6.280;2022-11-04T09:34:02;5.25;;;2.63;;
25153;SDS011;47555;51.038;6.280;2022-11-04T09:36:28;2.90;;;2.17;;
25153;SDS011;47555;51.038;6.280;2022-11-04T09:38:53;6.18;;;2.80;;
25153;SDS011;47555;51.038;6.280;2022-11-04T09:41:37;4.90;;;2.20;;
25153;SDS011;47555;51.038;6.280;2022-11-04T09:44:21;7.93;;;2.40;;
25153;SDS011;47555;51.038;6.280;2022-11-04T09:46:51;7.50;;;2.78;;
25153;SDS011;47555;51.038;6.280;2022-11-04T09:49:18;7.03;;;2.50;;
25153;SDS011;47555;51.038;6.280;2022-11-04T09:51:46;6.97;;;2.35;;
25153;SDS011;47555;51.038;6.280;2022-11-04T09:54:17;8.35;;;3.33;;
25153;SDS011;47555;51.038;6.280;2022-11-04T09:56:47;4.60;;;2.45;;
25153;SDS011;47555;51.038;6.280;2022-11-04T09:59:18;8.30;;;2.67;;
25153;SDS011;47555;51.038;6.280;2022-11-04T10:02:00;7.70;;;3.00;;
25153;SDS011;47555;51.038;6.280;2022-11-04T10:04:53;4.53;;;3.22;;
25153;SDS011;47555;51.038;6.280;2022-11-04T10:10:45;3.78;;;2.63;;
25153;SDS011;47555;51.038;6.280;2022-11-04T10:18:45;4.70;;;2.53;;
25153;SDS011;47555;51.038;6.280;2022-11-04T10:21:20;6.80;;;2.20;;
25153;SDS011;47555;51.038;6.280;2022-11-04T10:24:00;7.38;;;2.30;;
25153;SDS011;47555;51.038;6.280;2022-11-04T10:29:04;6.65;;;2.30;;
25153;SDS011;47555;51.038;6.280;2022-11-04T10:31:34;8.65;;;2.65;;
25153;SDS011;47555;51.038;6.280;2022-11-04T10:34:07;5.20;;;2.08;;
25153;SDS011;47555;51.038;6.280;2022-11-04T10:36:45;3.97;;;1.67;;
25153;SDS011;47555;51.038;6.280;2022-11-04T10:39:14;6.68;;;1.83;;
25153;SDS011;47555;51.038;6.280;2022-11-04T10:41:47;5.78;;;2.13;;
25153;SDS011;47555;51.038;6.280;2022-11-04T10:44:19;3.72;;;1.67;;
25153;SDS011;47555;51.038;6.280;2022-11-04T10:52:21;3.67;;;1.95;;
25153;SDS011;47555;51.038;6.280;2022-11-04T10:54:47;3.65;;;1.60;;
25153;SDS011;47555;51.038;6.280;2022-11-04T10:57:21;4.18;;;1.90;;
25153;SDS011;47555;51.038;6.280;2022-11-04T11:07:38;3.47;;;2.22;;
25153;SDS011;47555;51.038;6.280;2022-11-04T11:10:04;5.07;;;1.52;;
25153;SDS011;47555;51.038;6.280;2022-11-04T11:12:40;4.32;;;2.20;;
25153;SDS011;47555;51.038;6.280;2022-11-04T11:17:49;4.50;;;1.60;;
25153;SDS011;47555;51.038;6.280;2022-11-04T11:22:48;2.42;;;1.70;;
25153;SDS011;47555;51.038;6.280;2022-11-04T11:25:20;3.30;;;1.73;;
25153;SDS011;47555;51.038;6.280;2022-11-04T11:27:49;4.25;;;1.88;;
25153;SDS011;47555;51.038;6.280;2022-11-04T11:30:28;4.03;;;1.83;;
25153;SDS011;47555;51.038;6.280;2022-11-04T11:35:26;3.95;;;1.70;;
25153;SDS011;47555;51.038;6.280;2022-11-04T11:37:56;2.83;;;2.00;;
25153;SDS011;47555;51.038;6.280;2022-11-04T11:42:56;6.40;;;2.10;;
25153;SDS011;47555;51.038;6.280;2022-11-04T11:45:24;4.03;;;1.50;;
25153;SDS011;47555;51.038;6.280;2022-11-04T11:47:50;3.75;;;1.73;;
25153;SDS011;47555;51.038;6.280;2022-11-04T11:50:25;2.33;;;1.83;;
25153;SDS011;47555;51.038;6.280;2022-11-04T11:53:12;2.97;;;1.80;;
25153;SDS011;47555;51.038;6.280;2022-11-04T11:55:44;5.25;;;2.15;;
25153;SDS011;47555;51.038;6.280;2022-11-04T11:58:23;3.58;;;1.77;;
25153;SDS011;47555;51.038;6.280;2022-11-04T12:00:59;4.38;;;1.95;;
25153;SDS011;47555;51.038;6.280;2022-11-04T12:03:29;4.15;;;2.22;;
25153;SDS011;47555;51.038;6.280;2022-11-04T12:14:46;5.43;;;2.70;;
25153;SDS011;47555;51.038;6.280;2022-11-04T12:31:33;2.30;;;1.70;;
25153;SDS011;47555;51.038;6.280;2022-11-04T12:39:47;3.25;;;1.75;;
25153;SDS011;47555;51.038;6.280;2022-11-04T12:42:25;6.30;;;2.38;;
25153;SDS011;47555;51.038;6.280;2022-11-04T12:45:06;3.90;;;1.60;;
25153;SDS011;47555;51.038;6.280;2022-11-04T12:47:52;3.25;;;1.80;;
25153;SDS011;47555;51.038;6.280;2022-11-04T12:50:38;3.47;;;2.00;;
25153;SDS011;47555;51.038;6.280;2022-11-04T12:53:34;2.38;;;1.80;;
25153;SDS011;47555;51.038;6.280;2022-11-04T12:56:17;4.55;;;2.20;;
25153;SDS011;47555;51.038;6.280;2022-11-04T13:01:41;4.40;;;1.80;;
25153;SDS011;47555;51.038;6.280;2022-11-04T13:04:21;3.42;;;1.80;;
25153;SDS011;47555;51.038;6.280;2022-11-04T13:06:53;4.65;;;1.88;;
25153;SDS011;47555;51.038;6.280;2022-11-04T13:09:41;2.60;;;2.10;;
25153;SDS011;47555;51.038;6.280;2022-11-04T13:12:21;7.35;;;2.60;;
25153;SDS011;47555;51.038;6.280;2022-11-04T13:15:00;4.18;;;2.10;;
25153;SDS011;47555;51.038;6.280;2022-11-04T13:17:30;3.88;;;2.15;;
25153;SDS011;47555;51.038;6.280;2022-11-04T13:20:00;4.97;;;2.67;;
25153;SDS011;47555;51.038;6.280;2022-11-04T13:22:31;4.35;;;2.55;;
25153;SDS011;47555;51.038;6.280;2022-11-04T13:25:03;7.05;;;2.70;;
25153;SDS011;47555;51.038;6.280;2022-11-04T13:27:47;6.32;;;3.30;;
25153;SDS011;47555;51.038;6.280;2022-11-04T13:32:39;7.47;;;2.97;;
25153;SDS011;47555;51.038;6.280;2022-11-04T13:38:10;6.10;;;3.22;;
25153;SDS011;47555;51.038;6.280;2022-11-04T13:41:04;7.65;;;3.75;;
25153;SDS011;47555;51.038;6.280;2022-11-04T13:43:47;6.43;;;3.90;;
25153;SDS011;47555;51.038;6.280;2022-11-04T13:48:52;5.63;;;3.67;;
25153;SDS011;47555;51.038;6.280;2022-11-04T13:51:34;7.68;;;4.72;;
25153;SDS011;47555;51.038;6.280;2022-11-04T13:57:02;6.72;;;4.43;;
25153;SDS011;47555;51.038;6.280;2022-11-04T13:59:42;9.35;;;4.43;;
25153;SDS011;47555;51.038;6.280;2022-11-04T14:02:46;7.13;;;4.25;;
25153;SDS011;47555;51.038;6.280;2022-11-04T14:10:35;4.70;;;3.97;;
25153;SDS011;47555;51.038;6.280;2022-11-04T14:16:02;6.40;;;3.60;;
25153;SDS011;47555;51.038;6.280;2022-11-04T14:18:33;7.60;;;3.33;;
25153;SDS011;47555;51.038;6.280;2022-11-04T14:21:15;7.43;;;3.60;;
25153;SDS011;47555;51.038;6.280;2022-11-04T14:23:48;4.78;;;3.10;;
25153;SDS011;47555;51.038;6.280;2022-11-04T14:26:17;9.57;;;3.15;;
25153;SDS011;47555;51.038;6.280;2022-11-04T14:28:49;4.78;;;2.58;;
25153;SDS011;47555;51.038;6.280;2022-11-04T14:34:02;3.67;;;2.78;;
25153;SDS011;47555;51.038;6.280;2022-11-04T14:36:30;4.43;;;2.80;;
25153;SDS011;47555;51.038;6.280;2022-11-04T14:38:57;3.85;;;2.70;;
25153;SDS011;47555;51.038;6.280;2022-11-04T14:41:55;7.47;;;2.72;;
25153;SDS011;47555;51.038;6.280;2022-11-04T14:44:36;5.10;;;2.83;;
25153;SDS011;47555;51.038;6.280;2022-11-04T14:47:40;5.57;;;2.40;;
25153;SDS011;47555;51.038;6.280;2022-11-04T14:50:02;5.22;;;2.65;;
25153;SDS011;47555;51.038;6.280;2022-11-04T14:52:32;5.28;;;2.50;;
25153;SDS011;47555;51.038;6.280;2022-11-04T14:57:41;5.20;;;2.50;;
25153;SDS011;47555;51.038;6.280;2022-11-04T15:02:48;5.63;;;3.00;;
25153;SDS011;47555;51.038;6.280;2022-11-04T15:05:28;5.47;;;2.73;;
25153;SDS011;47555;51.038;6.280;2022-11-04T15:07:57;3.80;;;2.63;;
25153;SDS011;47555;51.038;6.280;2022-11-04T15:10:24;4.45;;;2.75;;
25153;SDS011;47555;51.038;6.280;2022-11-04T15:12:52;6.55;;;3.47;;
25153;SDS011;47555;51.038;6.280;2022-11-04T15:17:59;4.03;;;2.92;;
25153;SDS011;47555;51.038;6.280;2022-11-04T15:20:29;5.90;;;3.10;;
25153;SDS011;47555;51.038;6.280;2022-11-04T15:22:55;6.20;;;3.25;;
25153;SDS011;47555;51.038;6.280;2022-11-04T15:25:23;6.93;;;3.47;;
25153;SDS011;47555;51.038;6.280;2022-11-04T15:27:49;6.15;;;3.80;;
25153;SDS011;47555;51.038;6.280;2022-11-04T15:30:17;6.72;;;4.22;;
25153;SDS011;47555;51.038;6.280;2022-11-04T15:32:55;7.78;;;3.65;;
25153;SDS011;47555;51.038;6.280;2022-11-04T15:35:26;6.70;;;4.10;;
25153;SDS011;47555;51.038;6.280;2022-11-04T15:37:56;6.20;;;3.83;;
25153;SDS011;47555;51.038;6.280;2022-11-04T15:40:25;9.18;;;4.30;;
25153;SDS011;47555;51.038;6.280;2022-11-04T15:42:52;6.28;;;4.38;;
25153;SDS011;47555;51.038;6.280;2022-11-04T15:45:26;6.07;;;3.92;;
25153;SDS011;47555;51.038;6.280;2022-11-04T15:50:46;9.30;;;4.70;;
25153;SDS011;47555;51.038;6.280;2022-11-04T15:53:12;8.02;;;4.80;;
25153;SDS011;47555;51.038;6.280;2022-11-04T15:55:39;7.05;;;5.18;;
25153;SDS011;47555;51.038;6.280;2022-11-04T15:58:08;7.03;;;4.28;;
25153;SDS011;47555;51.038;6.280;2022-11-04T16:00:38;9.35;;;5.68;;
25153;SDS011;47555;51.038;6.280;2022-11-04T16:03:04;8.95;;;5.00;;
25153;SDS011;47555;51.038;6.280;2022-11-04T16:05:33;7.53;;;5.57;;
25153;SDS011;47555;51.038;6.280;2022-11-04T16:08:20;6.97;;;5.10;;
25153;SDS011;47555;51.038;6.280;2022-11-04T16:10:47;9.63;;;6.10;;
25153;SDS011;47555;51.038;6.280;2022-11-04T16:18:22;8.45;;;5.53;;
25153;SDS011;47555;51.038;6.280;2022-11-04T16:21:04;10.43;;;5.00;;
25153;SDS011;47555;51.038;6.280;2022-11-04T16:23:30;8.38;;;4.65;;
25153;SDS011;47555;51.038;6.280;2022-11-04T16:25:57;6.72;;;4.97;;
25153;SDS011;47555;51.038;6.280;2022-11-04T16:28:28;8.48;;;4.85;;
25153;SDS011;47555;51.038;6.280;2022-11-04T16:30:56;6.13;;;4.65;;
25153;SDS011;47555;51.038;6.280;2022-11-04T16:33:28;7.00;;;4.97;;
25153;SDS011;47555;51.038;6.280;2022-11-04T16:35:53;8.07;;;4.88;;
25153;SDS011;47555;51.038;6.280;2022-11-04T16:38:19;8.75;;;5.20;;
25153;SDS011;47555;51.038;6.280;2022-11-04T16:40:45;10.80;;;5.18;;
25153;SDS011;47555;51.038;6.280;2022-11-04T16:43:13;6.25;;;5.18;;
25153;SDS011;47555;51.038;6.280;2022-11-04T16:45:44;8.50;;;5.05;;
25153;SDS011;47555;51.038;6.280;2022-11-04T16:48:15;6.80;;;5.13;;
25153;SDS011;47555;51.038;6.280;2022-11-04T16:50:42;9.43;;;5.47;;
25153;SDS011;47555;51.038;6.280;2022-11-04T16:53:07;8.40;;;5.40;;
25153;SDS011;47555;51.038;6.280;2022-11-04T16:55:33;8.52;;;5.43;;
25153;SDS011;47555;51.038;6.280;2022-11-04T16:58:00;10.38;;;5.40;;
25153;SDS011;47555;51.038;6.280;2022-11-04T17:00:27;9.15;;;5.82;;
25153;SDS011;47555;51.038;6.280;2022-11-04T17:02:56;9.90;;;5.35;;
25153;SDS011;47555;51.038;6.280;2022-11-04T17:05:22;7.82;;;6.03;;
25153;SDS011;47555;51.038;6.280;2022-11-04T17:07:48;7.97;;;5.32;;
25153;SDS011;47555;51.038;6.280;2022-11-04T17:10:18;8.70;;;6.10;;
25153;SDS011;47555;51.038;6.280;2022-11-04T17:15:12;9.65;;;5.50;;
25153;SDS011;47555;51.038;6.280;2022-11-04T17:17:38;7.50;;;5.25;;
25153;SDS011;47555;51.038;6.280;2022-11-04T17:20:04;7.88;;;5.60;;
25153;SDS011;47555;51.038;6.280;2022-11-04T17:22:31;8.93;;;5.90;;
25153;SDS011;47555;51.038;6.280;2022-11-04T17:25:00;11.02;;;5.95;;
25153;SDS011;47555;51.038;6.280;2022-11-04T17:27:26;13.30;;;6.30;;
25153;SDS011;47555;51.038;6.280;2022-11-04T17:29:52;10.65;;;6.63;;